Time;durP1;ratioP1;P1;durP2;ratioP2;P2;SDS_P1;SDS_P2;PMS_P1;PMS_P2;Temp;Humidity;BMP_temperature;BMP_pressure;BME280_temperature;BME280_humidity;BME280_pressure;Samples;Min_cycle;Max_cycle;Signal;HPM_P1;HPM_P2
2021/04/27 00:01:28;;;;;;;2.50;1.40;;;;;;;1.48;55.45;100128.75;10584842;28;20052;-82
2021/04/27 00:06:30;;;;;;;3.75;1.85;;;;;;;1.43;55.59;100125.28;10602628;28;20036;-82
2021/04/27 00:11:34;;;;;;;2.70;1.70;;;;;;;1.69;55.94;100125.44;10602716;28;20034;-82
2021/04/27 00:16:36;;;;;;;3.33;1.88;;;;;;;1.61;54.95;100122.78;10604333;28;20048;-83
2021/04/27 00:21:38;;;;;;;2.47;1.60;;;;;;;1.27;55.87;100113.94;10621425;28;20044;-81
2021/04/27 00:26:39;;;;;;;2.58;1.80;;;;;;;1.55;56.08;100116.69;10620988;28;20062;-83
2021/04/27 00:31:40;;;;;;;6.40;1.52;;;;;;;1.39;55.75;100108.84;10602391;28;20054;-82
2021/04/27 00:36:44;;;;;;;2.03;1.48;;;;;;;1.13;56.38;100105.19;10594812;28;20043;-82
2021/04/27 00:41:45;;;;;;;9.02;1.70;;;;;;;0.80;57.73;100093.72;10638126;28;20043;-82
2021/04/27 00:46:46;;;;;;;4.68;1.70;;;;;;;1.27;56.93;100090.63;10619763;28;20040;-82
2021/04/27 00:51:48;;;;;;;4.22;1.70;;;;;;;1.01;57.46;100086.13;10618844;28;20050;-83
2021/04/27 00:56:50;;;;;;;2.92;1.58;;;;;;;1.33;56.69;100087.19;10601132;28;20051;-82
2021/04/27 01:01:51;;;;;;;3.58;1.38;;;;;;;1.08;56.77;100081.88;10618077;28;20060;-82
2021/04/27 01:06:52;;;;;;;3.33;1.40;;;;;;;0.89;57.86;100088.63;10589594;28;20069;-83
2021/04/27 01:12:01;;;;;;;4.15;2.40;;;;;;;1.07;57.12;100076.69;10604992;28;20055;-82
2021/04/27 01:17:15;;;;;;;4.90;2.90;;;;;;;0.89;57.62;100082.59;10621187;28;20040;-82
2021/04/27 01:22:42;;;;;;;5.65;3.53;;;;;;;0.73;58.31;100081.59;10602955;28;20040;-82
2021/04/27 01:27:44;;;;;;;3.92;2.65;;;;;;;1.06;57.57;100080.97;10619821;28;20039;-82
2021/04/27 01:32:46;;;;;;;2.95;1.73;;;;;;;0.87;57.35;100087.72;10605949;28;20043;-83
2021/04/27 01:37:48;;;;;;;4.13;2.10;;;;;;;0.83;57.69;100082.53;10619449;28;20039;-82
2021/04/27 01:42:49;;;;;;;4.43;1.98;;;;;;;0.54;57.88;100077.09;10585152;28;20052;-82
2021/04/27 01:47:51;;;;;;;6.95;2.70;;;;;;;0.30;58.22;100081.16;10596637;28;20051;-82
2021/04/27 01:52:53;;;;;;;7.30;3.22;;;;;;;0.38;58.41;100076.94;10620439;28;20077;-82
2021/04/27 01:57:55;;;;;;;4.57;3.20;;;;;;;0.45;58.48;100068.41;10614033;28;20115;-82
2021/04/27 02:02:56;;;;;;;6.82;3.08;;;;;;;0.47;58.53;100082.19;10610692;28;20043;-83
2021/04/27 02:08:23;;;;;;;;;;;;;;;0.20;59.30;100071.59;10590269;28;20062;-80
2021/04/27 02:13:28;;;;;;;5.32;3.58;;;;;;;0.09;59.79;100070.59;10601206;28;19987;-81
2021/04/27 02:18:45;;;;;;;11.73;5.03;;;;;;;-0.06;60.47;100066.13;10600312;28;20043;-81
2021/04/27 02:23:51;;;;;;;8.05;5.32;;;;;;;-0.33;61.14;100066.66;10604759;28;20043;-82
2021/04/27 02:28:56;;;;;;;7.47;5.47;;;;;;;-0.35;61.18;100066.66;10616890;28;20011;-81
2021/04/27 02:34:00;;;;;;;8.45;6.55;;;;;;;-0.33;61.15;100052.03;10634638;28;20067;-80
2021/04/27 02:39:09;;;;;;;7.35;5.30;;;;;;;-0.16;61.22;100051.38;10628744;28;20134;-82
2021/04/27 02:44:12;;;;;;;9.57;5.82;;;;;;;-0.23;61.21;100052.13;10596445;28;20055;-81
2021/04/27 02:49:15;;;;;;;7.22;4.50;;;;;;;0.10;61.24;100055.13;10599805;28;20071;-82
2021/04/27 02:54:26;;;;;;;6.45;4.20;;;;;;;0.38;59.74;100055.41;10600959;28;20051;-80
2021/04/27 02:59:28;;;;;;;7.05;4.35;;;;;;;0.22;60.07;100051.78;10599732;28;20036;-81
2021/04/27 03:04:30;;;;;;;6.85;3.90;;;;;;;0.16;59.68;100051.72;10599809;28;20048;-81
2021/04/27 03:09:44;;;;;;;6.72;4.47;;;;;;;-0.30;61.00;100051.22;10613071;28;20043;-81
2021/04/27 03:14:46;;;;;;;5.88;4.35;;;;;;;0.03;60.86;100044.69;10596460;28;20042;-81
2021/04/27 03:19:51;;;;;;;10.00;5.22;;;;;;;-0.18;60.97;100048.75;10594019;28;20044;-82
2021/04/27 03:24:59;;;;;;;12.25;5.00;;;;;;;-0.65;62.09;100061.94;10593042;28;20043;-82
2021/04/27 03:30:03;;;;;;;7.97;4.90;;;;;;;-0.71;62.54;100059.25;10593212;28;20073;-82
2021/04/27 03:35:09;;;;;;;10.50;4.70;;;;;;;-0.10;61.02;100057.47;10577770;28;20048;-81
2021/04/27 03:40:11;;;;;;;7.60;5.32;;;;;;;-0.29;61.43;100056.38;10611310;28;20072;-81
2021/04/27 03:45:19;;;;;;;8.82;5.32;;;;;;;-0.42;61.83;100058.78;10598629;28;20055;-82
2021/04/27 03:50:20;;;;;;;13.93;8.53;;;;;;;-0.36;61.77;100053.69;10620130;28;20052;-83
2021/04/27 03:55:41;;;;;;;31.80;14.48;;;;;;;-0.14;61.38;100054.81;10603310;28;20070;-82
2021/04/27 04:00:43;;;;;;;22.10;11.80;;;;;;;-0.11;61.33;100049.69;10606470;28;20043;-81
2021/04/27 04:05:52;;;;;;;13.02;9.85;;;;;;;-0.41;62.04;100056.22;10599060;28;20439;-80
2021/04/27 04:11:23;;;;;;;22.02;12.35;;;;;;;-0.54;62.71;100057.78;10620924;28;20040;-81
2021/04/27 04:16:25;;;;;;;46.28;17.73;;;;;;;-0.24;61.78;100058.16;10596968;28;20039;-81
2021/04/27 04:21:26;;;;;;;33.60;15.63;;;;;;;-0.35;61.89;100060.63;10589808;28;20039;-80
2021/04/27 04:26:32;;;;;;;35.65;17.90;;;;;;;-0.56;62.33;100056.91;10592698;28;20489;-81
2021/04/27 04:31:53;;;;;;;41.33;17.95;;;;;;;-0.54;62.81;100068.09;10607783;28;20522;-82
2021/04/27 04:37:32;;;;;;;31.90;13.95;;;;;;;-0.45;62.15;100061.31;10612788;28;20047;-81
2021/04/27 04:42:56;;;;;;;27.02;13.15;;;;;;;-0.43;62.17;100060.50;10612176;28;20047;-82
2021/04/27 04:48:17;;;;;;;15.35;9.77;;;;;;;-0.22;61.76;100049.59;10611499;28;20111;-82
2021/04/27 04:53:37;;;;;;;12.40;6.53;;;;;;;0.35;60.58;100060.53;10614429;28;20512;-81
2021/04/27 04:58:38;;;;;;;10.35;4.80;;;;;;;0.22;60.10;100055.25;10596139;28;20142;-81
2021/04/27 05:03:43;;;;;;;8.73;4.35;;;;;;;0.25;59.76;100063.03;10606315;28;20047;-81
2021/04/27 05:09:04;;;;;;;5.80;3.45;;;;;;;0.29;60.19;100060.47;10610821;28;20047;-81
2021/04/27 05:14:21;;;;;;;7.13;3.70;;;;;;;0.54;59.73;100061.59;10610389;28;20043;-82
2021/04/27 05:19:22;;;;;;;5.50;3.45;;;;;;;0.77;58.08;100062.66;10612973;28;20062;-84
2021/04/27 05:24:25;;;;;;;3.60;2.42;;;;;;;0.97;57.92;100057.59;10596189;28;20069;-85
2021/04/27 05:29:29;;;;;;;6.32;3.08;;;;;;;1.14;57.37;100050.81;10611330;28;20066;-84
2021/04/27 05:34:30;;;;;;;4.57;2.65;;;;;;;1.70;55.87;100060.66;10618884;28;20040;-83
2021/04/27 05:39:32;;;;;;;5.45;2.95;;;;;;;2.07;54.67;100058.19;10609470;28;20048;-84
2021/04/27 05:44:33;;;;;;;6.88;3.63;;;;;;;2.17;54.46;100053.88;10590148;28;20050;-87
2021/04/27 05:49:34;;;;;;;5.70;3.30;;;;;;;1.90;54.98;100059.84;10605534;28;20050;-82
2021/04/27 05:54:35;;;;;;;6.85;2.97;;;;;;;2.92;52.13;100056.56;10624114;28;20070;-81
2021/04/27 05:59:37;;;;;;;6.57;3.08;;;;;;;3.43;51.30;100054.78;10610245;28;20047;-79
2021/04/27 06:04:38;;;;;;;8.13;3.25;;;;;;;3.88;50.97;100056.34;10598067;28;20055;-83
2021/04/27 06:09:39;;;;;;;9.45;3.75;;;;;;;4.55;49.13;100057.69;10579203;28;20047;-82
2021/04/27 06:14:40;;;;;;;5.72;2.92;;;;;;;4.42;50.20;100056.06;10614365;28;20047;-81
2021/04/27 06:19:42;;;;;;;6.57;3.20;;;;;;;4.76;48.01;100051.47;10588558;28;20044;-81
2021/04/27 06:24:43;;;;;;;13.68;3.40;;;;;;;4.89;47.74;100047.91;10572530;28;20424;-82
2021/04/27 06:29:54;;;;;;;4.22;2.92;;;;;;;5.40;46.82;100042.19;10594625;28;20146;-85
2021/04/27 06:34:57;;;;;;;5.07;3.00;;;;;;;6.38;46.39;100044.50;10596460;28;20050;-84
2021/04/27 06:39:59;;;;;;;5.32;3.40;;;;;;;6.35;45.62;100044.53;10578482;28;20039;-83
2021/04/27 06:45:01;;;;;;;4.63;3.55;;;;;;;7.22;44.40;100035.28;10579452;28;20051;-84
2021/04/27 06:50:03;;;;;;;6.32;2.63;;;;;;;7.32;42.95;100031.59;10594136;28;20067;-84
2021/04/27 06:55:06;;;;;;;5.75;3.13;;;;;;;7.58;41.12;100025.00;10594078;28;20047;-84
2021/04/27 07:00:08;;;;;;;5.32;2.88;;;;;;;7.45;42.21;100013.94;10592359;28;20058;-84
2021/04/27 07:05:10;;;;;;;7.22;3.50;;;;;;;7.51;42.04;100019.03;10594108;28;20040;-82
2021/04/27 07:10:11;;;;;;;10.70;3.67;;;;;;;7.76;41.16;100008.09;10600455;28;20047;-82
2021/04/27 07:15:13;;;;;;;5.40;2.35;;;;;;;7.82;41.12;100010.56;10618508;28;20058;-82
2021/04/27 07:20:18;;;;;;;9.57;2.92;;;;;;;7.94;41.14;100006.84;10604991;28;20051;-84
2021/04/27 07:25:19;;;;;;;4.65;2.90;;;;;;;8.13;41.03;100004.66;10613028;28;20044;-80
2021/04/27 07:30:32;;;;;;;5.78;2.20;;;;;;;8.54;40.64;99994.16;10630738;28;20032;-79
2021/04/27 07:35:56;;;;;;;3.28;1.88;;;;;;;8.92;39.09;99989.69;10634102;28;20024;-79
2021/04/27 07:41:12;;;;;;;3.95;1.88;;;;;;;8.80;39.42;99993.47;10630911;28;20485;-81
2021/04/27 07:46:37;;;;;;;4.82;2.03;;;;;;;9.10;39.14;99986.59;10589232;28;20051;-80
2021/04/27 07:51:55;;;;;;;4.20;2.00;;;;;;;9.16;38.46;99982.06;10595737;28;20051;-81
2021/04/27 07:57:26;;;;;;;;;;;;;;;;;;;;;
2021/04/27 08:02:56;;;;;;;;;;;;;;;;;;;;;
2021/04/27 08:08:34;;;;;;;5.97;2.33;;;;;;;9.78;35.35;99971.56;10582433;28;20290;-81
2021/04/27 08:14:27;;;;;;;2.33;1.40;;;;;;;10.32;35.31;99968.22;10530699;28;20051;-81
2021/04/27 08:19:32;;;;;;;1.92;1.45;;;;;;;10.60;33.50;99969.03;10567833;28;20048;-82
2021/04/27 08:24:34;;;;;;;2.15;1.33;;;;;;;10.25;36.34;99974.56;10583538;28;20031;-80
2021/04/27 08:29:43;;;;;;;2.92;1.50;;;;;;;10.19;35.82;99972.13;10606651;28;20040;-80
2021/04/27 08:34:45;;;;;;;3.10;1.45;;;;;;;11.06;33.03;99962.22;10589251;28;20127;-80
2021/04/27 08:39:46;;;;;;;1.70;1.35;;;;;;;11.28;33.96;99954.41;10606413;28;20054;-80
2021/04/27 08:44:47;;;;;;;1.40;1.20;;;;;;;11.41;33.47;99948.72;10606463;28;20046;-79
2021/04/27 08:49:49;;;;;;;4.63;1.30;;;;;;;11.78;32.23;99938.53;10600731;28;20078;-79
2021/04/27 08:54:50;;;;;;;1.95;1.17;;;;;;;11.59;30.58;99941.00;10605088;28;20043;-80
2021/04/27 08:59:52;;;;;;;2.45;1.20;;;;;;;11.94;30.90;99941.47;10604993;28;20047;-79
2021/04/27 09:04:56;;;;;;;2.60;1.00;;;;;;;11.80;30.50;99936.69;10608156;28;20431;-83
2021/04/27 09:10:16;;;;;;;1.85;1.10;;;;;;;12.02;29.42;99930.63;10584973;28;20050;-81
2021/04/27 09:15:35;;;;;;;1.42;1.08;;;;;;;12.19;31.14;99927.34;10600283;28;20437;-82
2021/04/27 09:20:49;;;;;;;3.63;1.20;;;;;;;12.06;30.36;99919.06;10579824;28;20416;-82
2021/04/27 09:26:09;;;;;;;2.83;0.90;;;;;;;11.92;29.44;99916.97;10599986;28;20080;-81
2021/04/27 09:31:38;;;;;;;2.20;1.20;;;;;;;12.03;31.81;99904.22;10580015;28;20122;-81
2021/04/27 09:36:39;;;;;;;2.88;1.10;;;;;;;13.05;30.54;99893.78;10598391;28;20044;-81
2021/04/27 09:41:41;;;;;;;2.13;1.10;;;;;;;12.56;28.72;99895.03;10601958;28;20481;-81
2021/04/27 09:46:42;;;;;;;2.30;1.35;;;;;;;12.43;28.31;99885.94;10613737;28;20047;-80
2021/04/27 09:51:50;;;;;;;3.83;1.23;;;;;;;12.85;28.92;99884.13;10627810;28;20042;-79
2021/04/27 09:56:54;;;;;;;2.05;1.25;;;;;;;13.22;29.31;99879.88;10625710;28;20441;-81
2021/04/27 10:01:58;;;;;;;1.88;1.20;;;;;;;13.61;28.97;99874.53;10598235;28;20043;-81
2021/04/27 10:07:01;;;;;;;4.18;1.50;;;;;;;13.14;29.63;99869.63;10595172;28;20035;-81
2021/04/27 10:12:04;;;;;;;4.78;1.48;;;;;;;13.30;31.25;99867.19;10574389;28;20046;-80
2021/04/27 10:17:06;;;;;;;3.55;1.23;;;;;;;13.70;28.83;99846.84;10591678;28;20040;-80
2021/04/27 10:22:07;;;;;;;2.22;1.30;;;;;;;13.99;27.75;99849.84;10557738;28;20513;-79
2021/04/27 10:27:10;;;;;;;7.57;1.40;;;;;;;14.39;28.87;99832.91;10595551;28;20495;-80
2021/04/27 10:32:14;;;;;;;2.15;1.42;;;;;;;13.59;29.22;99831.53;10607196;28;20497;-81
2021/04/27 10:37:16;;;;;;;2.72;1.73;;;;;;;13.74;28.79;99829.91;10601394;28;20124;-80
2021/04/27 10:42:19;;;;;;;2.85;1.45;;;;;;;14.60;26.89;99810.66;10603744;28;20043;-81
2021/04/27 10:47:21;;;;;;;2.30;1.40;;;;;;;13.91;27.29;99805.34;10601546;28;20512;-82
2021/04/27 10:52:36;;;;;;;2.10;1.13;;;;;;;13.68;27.67;99797.66;10582064;28;20120;-80
2021/04/27 10:57:47;;;;;;;2.20;1.58;;;;;;;14.11;27.30;99784.03;10564308;28;20044;-82
2021/04/27 11:03:12;;;;;;;2.97;1.20;;;;;;;14.87;28.45;99775.72;10570562;28;20062;-82
2021/04/27 11:08:13;;;;;;;2.08;1.08;;;;;;;14.85;26.82;99772.34;10601626;28;20071;-82
2021/04/27 11:13:15;;;;;;;2.00;1.40;;;;;;;14.20;28.82;99763.38;10600006;28;20089;-80
2021/04/27 11:18:18;;;;;;;2.25;1.20;;;;;;;14.41;26.13;99759.63;10601153;28;20104;-83
2021/04/27 11:23:52;;;;;;;2.10;1.13;;;;;;;14.31;27.71;99750.47;10601782;28;20054;-83
2021/04/27 11:28:58;;;;;;;2.17;1.15;;;;;;;14.99;26.50;99750.41;10607713;28;20047;-82
2021/04/27 11:34:03;;;;;;;4.50;1.20;;;;;;;14.78;26.93;99755.06;10619342;28;20036;-83
2021/04/27 11:39:13;;;;;;;3.08;0.93;;;;;;;14.66;27.45;99740.72;10600752;28;20043;-83
2021/04/27 11:44:17;;;;;;;2.17;1.10;;;;;;;14.36;26.76;99729.91;10597539;28;20044;-82
2021/04/27 11:49:20;;;;;;;2.08;1.20;;;;;;;14.63;26.71;99723.19;10598319;28;20062;-84
2021/04/27 11:54:34;;;;;;;2.15;1.25;;;;;;;14.78;28.30;99733.88;10609072;28;20048;-80
2021/04/27 11:59:35;;;;;;;1.27;1.00;;;;;;;14.95;26.23;99717.09;10577515;28;20040;-83
2021/04/27 12:04:36;;;;;;;2.90;1.15;;;;;;;14.55;27.57;99709.53;10615439;28;20070;-83
2021/04/27 12:09:42;;;;;;;3.47;1.20;;;;;;;14.54;27.33;99710.47;10613025;28;20058;-81
2021/04/27 12:14:53;;;;;;;2.53;1.13;;;;;;;13.78;27.05;99709.13;10599624;28;20051;-83
2021/04/27 12:20:14;;;;;;;3.40;1.50;;;;;;;13.05;29.16;99718.78;10620997;28;20044;-82
2021/04/27 12:25:17;;;;;;;1.35;1.00;;;;;;;13.54;29.43;99704.09;10598999;28;20040;-84
2021/04/27 12:30:23;;;;;;;1.88;1.13;;;;;;;13.80;27.65;99686.97;10616942;28;20101;-83
2021/04/27 12:35:27;;;;;;;1.73;1.00;;;;;;;14.26;27.87;99681.97;10631779;28;20046;-80
2021/04/27 12:40:32;;;;;;;2.10;1.40;;;;;;;14.21;27.87;99681.34;10637176;28;20076;-82
2021/04/27 12:45:40;;;;;;;2.53;1.10;;;;;;;14.62;29.46;99673.88;10637116;28;20054;-82
2021/04/27 12:50:57;;;;;;;1.48;1.10;;;;;;;15.26;26.66;99665.94;10604163;28;20055;-82
2021/04/27 12:55:59;;;;;;;5.22;1.20;;;;;;;15.08;26.08;99659.91;10592330;28;20059;-82
2021/04/27 13:01:03;;;;;;;4.30;1.40;;;;;;;14.80;25.88;99656.16;10591723;28;20059;-82
2021/04/27 13:06:28;;;;;;;1.90;1.23;;;;;;;14.00;27.34;99664.81;10603057;28;20042;-82
2021/04/27 13:11:29;;;;;;;3.22;1.70;;;;;;;14.31;26.22;99645.56;10604964;28;20039;-82
2021/04/27 13:16:36;;;;;;;1.38;1.00;;;;;;;14.94;25.91;99630.72;10604732;28;20059;-82
2021/04/27 13:22:11;;;;;;;1.85;1.25;;;;;;;14.88;25.54;99634.56;10608188;28;20058;-82
2021/04/27 13:27:24;;;;;;;3.33;1.23;;;;;;;14.35;26.29;99633.88;10603986;28;20495;-83
2021/04/27 13:32:26;;;;;;;1.70;1.20;;;;;;;14.44;26.42;99615.81;10583472;28;20484;-83
2021/04/27 13:37:27;;;;;;;2.22;1.30;;;;;;;14.36;26.24;99616.22;10601257;28;20042;-83
2021/04/27 13:42:32;;;;;;;1.75;1.30;;;;;;;13.92;26.33;99608.88;10585217;28;20496;-82
2021/04/27 13:47:33;;;;;;;1.58;1.23;;;;;;;14.13;26.48;99602.44;10602610;28;20036;-81
2021/04/27 13:52:35;;;;;;;2.17;1.60;;;;;;;14.06;26.45;99600.22;10591163;28;20115;-81
2021/04/27 13:57:36;;;;;;;3.00;1.50;;;;;;;13.81;26.71;99598.00;10592645;28;20043;-83
2021/04/27 14:02:37;;;;;;;4.00;1.15;;;;;;;13.33;26.99;99586.38;10609621;28;20063;-81
2021/04/27 14:07:41;;;;;;;1.92;1.20;;;;;;;13.26;27.07;99580.53;10631846;28;20048;-80
2021/04/27 14:12:44;;;;;;;2.80;1.23;;;;;;;13.48;27.17;99579.47;10614410;28;20039;-81
2021/04/27 14:17:46;;;;;;;2.83;1.17;;;;;;;13.49;26.56;99565.31;10613179;28;20058;-82
2021/04/27 14:22:48;;;;;;;2.30;1.13;;;;;;;13.82;27.32;99558.31;10612273;28;20031;-82
2021/04/27 14:27:49;;;;;;;5.97;1.40;;;;;;;13.84;25.76;99556.41;10629919;28;20047;-81
2021/04/27 14:32:53;;;;;;;1.95;1.00;;;;;;;14.16;25.72;99550.34;10586272;28;20666;-82
2021/04/27 14:37:55;;;;;;;2.80;1.20;;;;;;;14.06;27.26;99542.06;10566029;28;20077;-83
2021/04/27 14:42:56;;;;;;;3.47;1.35;;;;;;;14.29;25.27;99541.66;10542633;28;20048;-82
2021/04/27 14:47:58;;;;;;;1.92;1.20;;;;;;;14.06;26.24;99532.34;10572035;28;20454;-82
2021/04/27 14:53:00;;;;;;;2.97;1.52;;;;;;;13.87;26.04;99534.28;10562235;28;20210;-81
2021/04/27 14:58:02;;;;;;;2.35;1.30;;;;;;;13.78;26.43;99524.19;10558320;28;20127;-84
2021/04/27 15:03:03;;;;;;;4.78;1.38;;;;;;;13.81;26.12;99513.44;10556057;28;20073;-84
2021/04/27 15:08:07;;;;;;;1.75;1.20;;;;;;;13.86;25.39;99506.16;10555882;28;20032;-83
2021/04/27 15:13:08;;;;;;;3.78;1.73;;;;;;;13.81;27.33;99505.53;10539724;28;20048;-83
2021/04/27 15:18:09;;;;;;;2.53;1.63;;;;;;;13.73;27.36;99500.69;10554068;28;20056;-80
2021/04/27 15:23:11;;;;;;;1.88;1.25;;;;;;;13.81;27.84;99493.19;10553690;28;20485;-82
2021/04/27 15:28:13;;;;;;;2.55;1.83;;;;;;;13.71;28.58;99486.69;10553714;28;20040;-81
2021/04/27 15:33:14;;;;;;;2.08;1.50;;;;;;;13.65;29.47;99486.16;10557613;28;20078;-82
2021/04/27 15:38:16;;;;;;;1.77;1.20;;;;;;;13.48;28.68;99490.53;10547779;28;20475;-81
2021/04/27 15:43:17;;;;;;;5.10;1.52;;;;;;;13.44;29.48;99482.88;10562471;28;20050;-81
2021/04/27 15:48:18;;;;;;;5.65;1.60;;;;;;;13.55;29.58;99481.38;10546904;28;20105;-80
2021/04/27 15:53:20;;;;;;;5.97;1.58;;;;;;;13.61;29.53;99481.03;10570146;28;20095;-81
2021/04/27 15:58:21;;;;;;;2.00;1.58;;;;;;;13.39;29.91;99483.09;10564814;28;20052;-81
2021/04/27 16:03:22;;;;;;;4.15;1.80;;;;;;;13.00;30.50;99476.25;10543468;28;20055;-82
2021/04/27 16:08:24;;;;;;;3.38;1.92;;;;;;;13.10;30.66;99472.25;10557899;28;20044;-81
2021/04/27 16:13:25;;;;;;;2.85;1.77;;;;;;;13.12;30.36;99466.88;10524130;28;20048;-80
2021/04/27 16:18:27;;;;;;;3.58;1.98;;;;;;;12.86;31.01;99465.56;10541495;28;20051;-81
2021/04/27 16:23:28;;;;;;;4.03;2.00;;;;;;;12.83;31.45;99471.81;10540615;28;20082;-82
2021/04/27 16:28:30;;;;;;;3.13;2.00;;;;;;;12.62;31.42;99476.41;10539802;28;20470;-82
2021/04/27 16:33:32;;;;;;;3.42;2.03;;;;;;;12.69;31.78;99457.63;10537898;28;20070;-80
2021/04/27 16:38:33;;;;;;;3.38;2.00;;;;;;;12.64;31.92;99457.84;10538463;28;20044;-83
2021/04/27 16:43:35;;;;;;;3.60;1.90;;;;;;;12.62;31.75;99457.09;10572605;28;20051;-79
2021/04/27 16:48:36;;;;;;;2.80;1.95;;;;;;;12.52;32.30;99459.28;10565394;28;20055;-82
2021/04/27 16:53:41;;;;;;;3.08;2.42;;;;;;;12.44;32.38;99461.47;10543245;28;20043;-81
2021/04/27 16:58:42;;;;;;;4.13;2.30;;;;;;;12.29;32.78;99455.16;10540812;28;20075;-83
2021/04/27 17:03:45;;;;;;;3.50;2.78;;;;;;;12.15;32.49;99464.66;10559523;28;20032;-82
2021/04/27 17:08:46;;;;;;;4.10;2.17;;;;;;;11.96;33.44;99460.25;10560572;28;20047;-80
2021/04/27 17:13:47;;;;;;;3.40;1.98;;;;;;;11.88;33.57;99466.78;10561382;28;20067;-82
2021/04/27 17:18:48;;;;;;;2.80;2.15;;;;;;;11.86;33.30;99466.84;10545107;28;20079;-80
2021/04/27 17:23:49;;;;;;;3.88;2.05;;;;;;;11.66;33.78;99477.41;10574398;28;20079;-80
2021/04/27 17:28:51;;;;;;;5.80;1.90;;;;;;;11.51;33.72;99477.19;10573360;28;20044;-81
2021/04/27 17:33:52;;;;;;;3.22;2.05;;;;;;;11.31;35.01;99480.69;10592881;28;20028;-80
2021/04/27 17:38:54;;;;;;;3.95;2.35;;;;;;;11.12;34.58;99479.78;10548792;28;20071;-80
2021/04/27 17:43:55;;;;;;;4.22;1.88;;;;;;;10.98;34.99;99490.88;10569545;28;20036;-80
2021/04/27 17:48:56;;;;;;;2.22;2.00;;;;;;;11.05;34.95;99487.06;10564517;28;20068;-80
2021/04/27 17:53:58;;;;;;;5.70;2.40;;;;;;;11.02;35.17;99495.09;10549102;28;20054;-78
2021/04/27 17:59:00;;;;;;;2.88;2.08;;;;;;;10.90;34.97;99497.38;10586734;28;20040;-79
2021/04/27 18:04:02;;;;;;;3.17;2.10;;;;;;;10.59;34.75;99491.59;10570910;28;20039;-82
2021/04/27 18:09:05;;;;;;;4.40;2.20;;;;;;;10.63;34.86;99494.97;10593902;27;20099;-81
2021/04/27 18:14:06;;;;;;;3.20;2.13;;;;;;;10.50;35.36;99502.47;10576025;28;20044;-81
2021/04/27 18:19:08;;;;;;;2.47;2.25;;;;;;;10.43;34.91;99505.41;10542711;28;20032;-81
2021/04/27 18:24:10;;;;;;;4.50;2.30;;;;;;;10.22;35.67;99507.06;10563448;28;20044;-82
2021/04/27 18:29:11;;;;;;;4.20;2.20;;;;;;;10.20;36.02;99508.91;10551860;28;20078;-82
2021/04/27 18:34:13;;;;;;;2.88;2.13;;;;;;;10.09;35.87;99512.81;10551030;28;20040;-82
2021/04/27 18:39:18;;;;;;;4.32;2.15;;;;;;;9.97;36.32;99517.66;10552110;28;20540;-81
2021/04/27 18:44:26;;;;;;;3.03;2.50;;;;;;;9.86;36.40;99518.03;10571953;28;20072;-82
2021/04/27 18:49:27;;;;;;;3.70;2.17;;;;;;;9.80;36.41;99523.53;10554932;28;20044;-81
2021/04/27 18:54:28;;;;;;;3.10;1.98;;;;;;;9.73;36.46;99525.50;10551892;28;20139;-84
2021/04/27 18:59:30;;;;;;;3.53;2.88;;;;;;;9.64;36.75;99522.38;10547285;28;20455;-85
2021/04/27 19:04:32;;;;;;;5.78;2.20;;;;;;;9.58;36.85;99533.94;10535712;28;20039;-84
2021/04/27 19:09:33;;;;;;;3.22;2.65;;;;;;;9.50;36.92;99534.22;10555518;28;20040;-82
2021/04/27 19:14:35;;;;;;;4.28;2.50;;;;;;;9.35;36.98;99540.84;10553339;28;20554;-84
2021/04/27 19:19:36;;;;;;;4.78;2.33;;;;;;;9.43;36.91;99543.22;10553263;28;20047;-84
2021/04/27 19:24:38;;;;;;;7.00;2.80;;;;;;;9.36;37.16;99541.72;10539788;28;20024;-84
2021/04/27 19:29:39;;;;;;;2.92;2.22;;;;;;;9.10;37.71;99538.22;10554942;28;20048;-83
2021/04/27 19:34:41;;;;;;;4.45;2.50;;;;;;;8.90;38.22;99547.63;10540050;28;20143;-84
2021/04/27 19:39:42;;;;;;;4.65;2.58;;;;;;;8.83;38.33;99549.59;10539705;28;20052;-84
2021/04/27 19:44:43;;;;;;;3.00;2.47;;;;;;;8.90;38.58;99547.63;10555289;28;20044;-84
2021/04/27 19:49:45;;;;;;;5.47;2.80;;;;;;;8.82;38.47;99543.50;10572166;28;20048;-84
2021/04/27 19:54:46;;;;;;;6.47;2.28;;;;;;;8.88;38.02;99554.69;10556442;28;20044;-83
2021/04/27 19:59:48;;;;;;;3.70;2.40;;;;;;;8.63;38.43;99550.22;10556999;28;20123;-84
2021/04/27 20:04:49;;;;;;;2.65;2.13;;;;;;;8.66;38.28;99541.44;10538143;28;20146;-82
2021/04/27 20:09:50;;;;;;;3.38;2.60;;;;;;;8.38;39.19;99547.53;10571962;28;20230;-82
2021/04/27 20:14:52;;;;;;;3.35;2.30;;;;;;;8.62;38.57;99540.66;10556695;28;20588;-84
2021/04/27 20:19:53;;;;;;;7.57;2.90;;;;;;;8.46;39.33;99549.94;10558629;28;20073;-83
2021/04/27 20:24:55;;;;;;;5.32;2.80;;;;;;;8.06;39.79;99544.09;10563794;28;20062;-83
2021/04/27 20:29:56;;;;;;;3.00;2.55;;;;;;;7.92;40.57;99545.38;10561529;28;20048;-83
2021/04/27 20:34:57;;;;;;;3.88;2.85;;;;;;;8.13;39.78;99554.38;10562341;28;20065;-82
2021/04/27 20:39:59;;;;;;;7.57;2.53;;;;;;;7.92;40.38;99543.59;10559868;28;20052;-83
2021/04/27 20:45:00;;;;;;;3.83;3.42;;;;;;;7.86;40.79;99542.94;10538889;28;20105;-83
2021/04/27 20:50:03;;;;;;;4.60;3.45;;;;;;;8.16;40.57;99542.06;10557032;28;20078;-81
2021/04/27 20:55:07;;;;;;;6.65;3.50;;;;;;;7.77;41.43;99546.69;10562886;28;20048;-84
2021/04/27 21:00:12;;;;;;;3.55;3.25;;;;;;;7.89;41.34;99550.72;10576159;28;20065;-84
2021/04/27 21:05:15;;;;;;;5.38;3.47;;;;;;;7.74;40.87;99547.59;10570761;28;20024;-83
2021/04/27 21:10:20;;;;;;;4.65;3.17;;;;;;;7.36;41.76;99542.59;10575316;28;20052;-83
2021/04/27 21:15:22;;;;;;;4.57;3.58;;;;;;;7.45;41.33;99548.41;10558802;28;20024;-83
2021/04/27 21:20:23;;;;;;;3.92;2.90;;;;;;;7.40;41.63;99546.84;10573811;28;20048;-84
2021/04/27 21:25:27;;;;;;;6.32;3.42;;;;;;;7.20;42.26;99544.72;10556603;28;20032;-82
2021/04/27 21:30:37;;;;;;;4.97;3.08;;;;;;;7.29;42.79;99540.13;10566705;28;20067;-83
2021/04/27 21:35:40;;;;;;;5.05;2.85;;;;;;;7.15;43.38;99537.00;10570822;28;20074;-84
2021/04/27 21:40:41;;;;;;;3.88;2.90;;;;;;;7.32;43.92;99531.34;10595781;22;20040;-72
2021/04/27 21:45:43;;;;;;;5.03;3.78;;;;;;;6.82;45.10;99536.97;10593965;28;20059;-73
2021/04/27 21:50:45;;;;;;;5.30;2.97;;;;;;;6.51;45.76;99534.22;10575831;28;20134;-74
2021/04/27 21:55:46;;;;;;;4.18;3.10;;;;;;;6.71;46.55;99531.13;10574767;28;20050;-74
2021/04/27 22:00:48;;;;;;;9.85;3.72;;;;;;;6.49;47.09;99536.00;10591035;28;20520;-73
2021/04/27 22:05:49;;;;;;;5.63;3.97;;;;;;;6.35;46.82;99545.06;10595072;28;20370;-74
2021/04/27 22:10:50;;;;;;;4.15;2.97;;;;;;;5.96;47.57;99539.78;10591733;28;20065;-72
2021/04/27 22:15:54;;;;;;;4.22;3.40;;;;;;;6.02;47.11;99543.16;10575259;28;20031;-73
2021/04/27 22:20:56;;;;;;;5.93;4.32;;;;;;;5.62;47.89;99535.22;10574430;28;20096;-74
2021/04/27 22:25:59;;;;;;;5.38;3.28;;;;;;;5.66;48.77;99536.88;10592291;28;20074;-73
2021/04/27 22:31:00;;;;;;;4.82;3.53;;;;;;;5.38;49.29;99535.69;10592012;28;20043;-74
2021/04/27 22:36:02;;;;;;;4.30;3.72;;;;;;;5.57;49.23;99524.88;10593427;28;20074;-74
2021/04/27 22:41:04;;;;;;;6.00;3.65;;;;;;;5.46;49.08;99533.81;10590864;28;20044;-74
2021/04/27 22:46:05;;;;;;;4.50;3.30;;;;;;;5.48;49.88;99525.06;10569895;28;20138;-72
2021/04/27 22:51:06;;;;;;;4.25;3.72;;;;;;;5.35;49.87;99525.31;10585234;28;20047;-72
2021/04/27 22:56:07;;;;;;;5.35;3.55;;;;;;;5.09;51.11;99525.78;10567073;28;20126;-73
2021/04/27 23:01:09;;;;;;;5.13;3.53;;;;;;;5.03;51.99;99517.19;10585391;28;20123;-73
2021/04/27 23:06:10;;;;;;;6.25;3.22;;;;;;;5.23;51.23;99519.47;10566541;28;20051;-73
2021/04/27 23:11:11;;;;;;;5.85;4.25;;;;;;;5.31;50.71;99508.88;10585343;28;20055;-72
2021/04/27 23:16:13;;;;;;;3.90;3.30;;;;;;;4.94;52.27;99511.28;10584625;28;20040;-70
2021/04/27 23:21:14;;;;;;;4.97;4.30;;;;;;;4.79;52.93;99504.63;10585882;28;20059;-71
2021/04/27 23:26:15;;;;;;;4.25;3.55;;;;;;;5.05;53.27;99498.97;10585238;28;20047;-70
2021/04/27 23:31:21;;;;;;;5.03;3.40;;;;;;;5.12;51.73;99504.91;10568765;28;20047;-70
2021/04/27 23:36:22;;;;;;;4.78;3.53;;;;;;;4.81;52.33;99497.63;10585907;28;20040;-72
2021/04/27 23:41:23;;;;;;;5.93;4.07;;;;;;;4.98;52.36;99492.13;10585335;28;20046;-69
2021/04/27 23:46:24;;;;;;;5.07;3.38;;;;;;;4.65;53.27;99493.53;10585974;28;20064;-71